createdAt,value
2018-12-21T00:00:20.531Z,6.60
2018-12-21T00:02:48.868Z,6.70
2018-12-21T00:05:17.111Z,6.80
2018-12-21T00:07:45.257Z,6.90
2018-12-21T00:10:13.595Z,6.90
2018-12-21T00:12:41.777Z,6.90
2018-12-21T00:15:10.049Z,7.00
2018-12-21T00:17:38.202Z,7.10
2018-12-21T00:20:08.539Z,7.20
2018-12-21T00:22:36.704Z,7.20
2018-12-21T00:25:05.706Z,7.20
2018-12-21T00:27:34.243Z,7.20
2018-12-21T00:30:02.984Z,7.30
2018-12-21T00:32:36.840Z,7.20
2018-12-21T00:35:10.683Z,7.20
2018-12-21T00:37:44.472Z,7.10
2018-12-21T00:40:18.171Z,7.10
2018-12-21T00:43:49.687Z,7.00
2018-12-21T00:46:24.159Z,6.90
2018-12-21T00:48:53.432Z,7.00
2018-12-21T00:51:29.975Z,7.00
2018-12-21T00:53:51.733Z,7.00
2018-12-21T00:56:20.096Z,7.00
2018-12-21T00:58:48.256Z,7.00
2018-12-21T01:01:16.610Z,7.00
2018-12-21T01:03:44.901Z,7.10
2018-12-21T01:06:13.240Z,7.00
2018-12-21T01:08:41.471Z,7.00
2018-12-21T01:11:09.727Z,7.00
2018-12-21T01:13:39.596Z,7.00
2018-12-21T01:16:07.974Z,7.00
2018-12-21T01:18:36.129Z,6.90
2018-12-21T01:21:04.385Z,6.90
2018-12-21T01:23:32.608Z,6.90
2018-12-21T01:26:00.821Z,6.90
2018-12-21T01:28:29.077Z,6.90
2018-12-21T01:30:57.309Z,6.80
2018-12-21T01:33:25.469Z,6.80
2018-12-21T01:35:53.733Z,6.80
2018-12-21T01:38:22.328Z,6.80
2018-12-21T01:40:50.495Z,6.70
2018-12-21T01:43:18.761Z,6.70
2018-12-21T01:45:47.117Z,6.70
2018-12-21T01:48:15.373Z,6.80
2018-12-21T01:50:43.616Z,6.90
2018-12-21T01:53:11.765Z,7.00
2018-12-21T01:55:40.010Z,7.00
2018-12-21T01:58:08.238Z,7.00
2018-12-21T02:00:36.568Z,7.10
2018-12-21T02:03:04.790Z,7.10
2018-12-21T02:05:32.951Z,7.20
2018-12-21T02:08:01.221Z,7.20
2018-12-21T02:10:29.383Z,7.20
2018-12-21T02:12:57.531Z,7.20
2018-12-21T02:15:25.697Z,7.20
2018-12-21T02:17:53.842Z,7.20
2018-12-21T02:20:22.076Z,7.20
2018-12-21T02:22:50.219Z,7.20
2018-12-21T02:25:18.492Z,7.20
2018-12-21T02:27:46.603Z,7.20
2018-12-21T02:30:14.785Z,7.20
2018-12-21T02:32:43.018Z,7.20
2018-12-21T02:35:11.199Z,7.20
2018-12-21T02:37:39.496Z,7.20
2018-12-21T02:40:07.836Z,7.10
2018-12-21T02:42:36.081Z,7.10
2018-12-21T02:45:05.119Z,6.90
2018-12-21T02:47:33.444Z,6.90
2018-12-21T02:50:01.617Z,6.80
2018-12-21T02:52:29.860Z,6.70
2018-12-21T02:54:58.089Z,6.70
2018-12-21T02:57:26.244Z,6.70
2018-12-21T02:59:54.500Z,6.60
2018-12-21T03:02:22.735Z,6.60
2018-12-21T03:04:50.932Z,6.60
2018-12-21T03:07:19.152Z,6.60
2018-12-21T03:09:47.321Z,6.70
2018-12-21T03:12:15.456Z,6.80
2018-12-21T03:14:43.625Z,6.90
2018-12-21T03:17:11.779Z,7.00
2018-12-21T03:19:39.975Z,7.20
2018-12-21T03:22:14.689Z,7.10
2018-12-21T03:24:38.452Z,7.20
2018-12-21T03:27:06.632Z,7.30
2018-12-21T03:29:34.778Z,7.30
2018-12-21T03:32:02.940Z,7.30
2018-12-21T03:34:31.119Z,7.20
2018-12-21T03:36:59.351Z,7.20
2018-12-21T03:39:27.552Z,7.30
2018-12-21T03:41:55.830Z,7.20
2018-12-21T03:44:24.116Z,7.20
2018-12-21T03:46:52.394Z,7.10
2018-12-21T03:49:20.544Z,7.10
2018-12-21T03:51:48.706Z,7.10
2018-12-21T03:54:17.067Z,7.10
2018-12-21T03:56:45.225Z,7.10
2018-12-21T03:59:13.436Z,7.10
2018-12-21T04:01:41.649Z,7.00
2018-12-21T04:04:09.771Z,7.00
2018-12-21T04:06:38.118Z,7.00
2018-12-21T04:09:06.834Z,6.90
2018-12-21T04:11:35.003Z,6.80
2018-12-21T04:14:03.312Z,6.70
2018-12-21T04:16:31.547Z,6.70
2018-12-21T04:18:59.729Z,6.70
2018-12-21T04:21:27.885Z,6.80
2018-12-21T04:23:56.033Z,6.90
2018-12-21T04:26:24.437Z,7.00
2018-12-21T04:28:52.586Z,7.00
2018-12-21T04:31:22.151Z,7.10
2018-12-21T04:33:50.289Z,7.10
2018-12-21T04:36:18.521Z,7.10
2018-12-21T04:38:46.647Z,7.10
2018-12-21T04:41:14.844Z,7.20
2018-12-21T04:43:43.278Z,7.20
2018-12-21T04:46:11.431Z,7.30
2018-12-21T04:48:39.593Z,7.30
2018-12-21T04:51:07.838Z,7.30
2018-12-21T04:53:35.983Z,7.30
2018-12-21T04:56:04.316Z,7.30
2018-12-21T04:58:32.475Z,7.30
2018-12-21T05:01:00.710Z,7.30
2018-12-21T05:03:28.834Z,7.20
2018-12-21T05:05:56.991Z,7.20
2018-12-21T05:08:25.159Z,7.20
2018-12-21T05:10:53.305Z,7.20
2018-12-21T05:13:21.475Z,7.30
2018-12-21T05:15:49.701Z,7.30
2018-12-21T05:18:17.832Z,7.30
2018-12-21T05:20:46.066Z,7.40
2018-12-21T05:23:14.216Z,7.50
2018-12-21T05:25:42.396Z,7.70
2018-12-21T05:28:10.703Z,7.80
2018-12-21T05:30:38.933Z,7.90
2018-12-21T05:33:07.228Z,7.90
2018-12-21T05:35:35.440Z,8.00
2018-12-21T05:38:03.707Z,8.00
2018-12-21T05:40:31.888Z,8.10
2018-12-21T05:43:00.044Z,8.10
2018-12-21T05:45:28.249Z,8.10
2018-12-21T05:47:56.435Z,8.10
2018-12-21T05:50:24.600Z,8.10
2018-12-21T05:53:00.612Z,8.20
2018-12-21T05:55:23.066Z,8.20
2018-12-21T05:57:51.802Z,8.30
2018-12-21T06:00:20.130Z,8.40
2018-12-21T06:02:48.779Z,8.40
2018-12-21T06:05:16.998Z,8.40
2018-12-21T06:07:46.096Z,8.50
2018-12-21T06:10:15.551Z,8.50
2018-12-21T06:12:44.003Z,8.40
2018-12-21T06:15:12.273Z,8.30
2018-12-21T06:17:40.436Z,8.40
2018-12-21T06:20:08.730Z,8.40
2018-12-21T06:22:36.861Z,8.30
2018-12-21T06:25:05.657Z,8.20
2018-12-21T06:27:33.863Z,8.20
2018-12-21T06:30:02.108Z,8.20
2018-12-21T06:32:30.480Z,8.10
2018-12-21T06:34:58.700Z,8.10
2018-12-21T06:37:27.263Z,8.00
2018-12-21T06:39:55.424Z,8.00
2018-12-21T06:42:23.584Z,8.00
2018-12-21T06:44:51.747Z,7.90
2018-12-21T06:47:19.900Z,7.90
2018-12-21T06:49:48.048Z,7.80
2018-12-21T06:52:16.268Z,7.70
2018-12-21T06:54:44.633Z,7.70
2018-12-21T06:57:12.796Z,7.50
2018-12-21T06:59:41.300Z,7.30
2018-12-21T07:02:09.554Z,7.30
2018-12-21T07:04:37.738Z,7.30
2018-12-21T07:07:05.916Z,7.20
2018-12-21T07:09:34.056Z,7.20
2018-12-21T07:12:02.216Z,7.20
2018-12-21T07:14:30.381Z,7.20
2018-12-21T07:16:58.522Z,7.20
2018-12-21T07:19:26.695Z,7.10
2018-12-21T07:21:54.851Z,7.10
2018-12-21T07:24:22.975Z,7.10
2018-12-21T07:26:51.223Z,7.10
2018-12-21T07:29:20.754Z,7.10
2018-12-21T07:31:49.007Z,7.10
2018-12-21T07:34:17.225Z,7.20
2018-12-21T07:36:45.395Z,7.20
2018-12-21T07:39:13.555Z,7.20
2018-12-21T07:41:41.980Z,7.20
2018-12-21T07:44:10.227Z,7.20
2018-12-21T07:46:38.385Z,7.10
2018-12-21T07:49:06.626Z,7.10
2018-12-21T07:51:34.884Z,7.10
2018-12-21T07:54:03.032Z,7.10
2018-12-21T07:56:31.175Z,7.00
2018-12-21T07:58:59.304Z,7.00
2018-12-21T08:01:27.452Z,7.00
2018-12-21T08:03:55.653Z,7.00
2018-12-21T08:06:23.811Z,7.10
2018-12-21T08:08:51.964Z,7.00
2018-12-21T08:11:20.129Z,7.10
2018-12-21T08:13:48.288Z,7.10
2018-12-21T08:16:16.520Z,7.10
2018-12-21T08:18:44.679Z,7.10
2018-12-21T08:21:12.848Z,7.10
2018-12-21T08:23:44.409Z,7.20
2018-12-21T08:26:11.144Z,7.20
2018-12-21T08:31:11.216Z,7.30
2018-12-21T08:33:39.562Z,7.30
2018-12-21T08:36:07.862Z,7.40
2018-12-21T08:38:36.111Z,7.40
2018-12-21T08:41:04.349Z,7.30
2018-12-21T08:43:32.692Z,7.40
2018-12-21T08:46:00.822Z,7.40
2018-12-21T08:48:28.996Z,7.40
2018-12-21T08:50:57.136Z,7.40
2018-12-21T08:53:25.277Z,7.40
2018-12-21T08:55:53.409Z,7.50
2018-12-21T08:58:21.539Z,7.50
2018-12-21T09:00:49.665Z,7.40
2018-12-21T09:03:17.795Z,7.40
2018-12-21T09:05:46.869Z,7.40
2018-12-21T09:08:15.021Z,7.50
2018-12-21T09:10:43.152Z,7.50
2018-12-21T09:13:11.452Z,7.60
2018-12-21T09:15:39.619Z,7.70
2018-12-21T09:18:07.743Z,7.60
2018-12-21T09:20:35.871Z,7.70
2018-12-21T09:23:04.107Z,7.70
2018-12-21T09:25:32.304Z,7.70
2018-12-21T09:28:00.465Z,7.80
2018-12-21T09:30:28.660Z,7.80
2018-12-21T09:32:56.908Z,7.90
2018-12-21T09:35:25.167Z,7.90
2018-12-21T09:37:53.419Z,8.00
2018-12-21T09:40:21.560Z,8.00
2018-12-21T09:42:49.797Z,7.90
2018-12-21T09:45:17.937Z,7.90
2018-12-21T09:47:46.083Z,8.00
2018-12-21T09:50:14.286Z,8.00
2018-12-21T09:52:42.434Z,8.00
2018-12-21T09:55:10.567Z,8.00
2018-12-21T09:57:38.720Z,8.00
2018-12-21T10:00:10.003Z,8.00
2018-12-21T10:02:38.180Z,8.00
2018-12-21T10:05:08.533Z,8.00
2018-12-21T10:07:36.677Z,8.10
2018-12-21T10:10:05.340Z,8.10
2018-12-21T10:12:33.515Z,8.20
2018-12-21T10:15:01.751Z,8.20
2018-12-21T10:17:29.899Z,8.30
2018-12-21T10:19:58.051Z,8.40
2018-12-21T10:22:26.195Z,8.40
2018-12-21T10:24:54.357Z,8.50
2018-12-21T10:27:22.595Z,8.50
2018-12-21T10:29:50.732Z,8.50
2018-12-21T10:32:18.884Z,8.50
2018-12-21T10:34:47.459Z,8.60
2018-12-21T10:37:16.795Z,8.70
2018-12-21T10:39:45.064Z,8.80
2018-12-21T10:42:13.215Z,8.90
2018-12-21T10:44:41.532Z,8.90
2018-12-21T10:47:09.691Z,8.90
2018-12-21T10:49:37.908Z,9.00
2018-12-21T10:52:06.168Z,9.10
2018-12-21T10:54:34.367Z,9.20
2018-12-21T10:57:02.692Z,9.30
2018-12-21T10:59:30.944Z,9.30
2018-12-21T11:01:59.215Z,9.40
2018-12-21T11:04:27.617Z,9.50
2018-12-21T11:06:55.896Z,9.50
2018-12-21T11:09:24.065Z,9.50
2018-12-21T11:11:52.225Z,9.50
2018-12-21T11:14:20.384Z,9.60
2018-12-21T11:16:48.543Z,9.60
2018-12-21T11:19:16.725Z,9.60
2018-12-21T11:21:44.947Z,9.70
2018-12-21T11:24:13.608Z,9.80
2018-12-21T11:26:41.841Z,9.80
2018-12-21T11:29:10.035Z,9.80
2018-12-21T11:31:38.227Z,9.90
2018-12-21T11:34:06.553Z,9.90
2018-12-21T11:36:34.763Z,9.90
2018-12-21T11:39:03.438Z,9.80
2018-12-21T11:41:31.561Z,9.90
2018-12-21T11:44:01.615Z,9.90
2018-12-21T11:46:31.552Z,10.00
2018-12-21T11:48:59.731Z,10.00
2018-12-21T11:51:27.964Z,10.00
2018-12-21T11:53:56.252Z,10.00
2018-12-21T11:56:24.519Z,10.00
2018-12-21T11:58:52.675Z,10.00
2018-12-21T12:01:20.811Z,10.10
2018-12-21T12:03:49.097Z,10.00
2018-12-21T12:06:17.215Z,10.00
2018-12-21T12:08:45.935Z,10.00
2018-12-21T12:11:14.051Z,10.00
2018-12-21T12:13:42.211Z,9.90
2018-12-21T12:16:10.969Z,10.00
2018-12-21T12:18:39.128Z,9.90
2018-12-21T12:21:07.263Z,9.90
2018-12-21T12:23:35.410Z,10.00
2018-12-21T12:26:03.721Z,10.00
2018-12-21T12:28:31.888Z,9.90
2018-12-21T12:31:04.533Z,9.90
2018-12-21T12:33:32.672Z,9.90
2018-12-21T12:36:00.881Z,9.90
2018-12-21T12:38:29.065Z,9.90
2018-12-21T12:40:57.184Z,9.80
2018-12-21T12:43:29.792Z,9.80
2018-12-21T12:45:57.984Z,9.80
2018-12-21T12:48:26.087Z,9.80
2018-12-21T12:50:54.285Z,9.80
2018-12-21T12:53:22.454Z,9.80
2018-12-21T12:55:50.857Z,9.80
2018-12-21T12:58:18.977Z,9.80
2018-12-21T13:00:47.175Z,9.80
2018-12-21T13:03:15.431Z,9.80
2018-12-21T13:05:43.715Z,9.80
2018-12-21T13:08:11.854Z,9.80
2018-12-21T13:10:41.081Z,9.80
2018-12-21T13:13:09.847Z,9.90
2018-12-21T13:15:38.137Z,9.90
2018-12-21T13:18:06.575Z,9.90
2018-12-21T13:20:34.844Z,10.00
2018-12-21T13:23:02.994Z,10.00
2018-12-21T13:25:32.013Z,10.00
2018-12-21T13:28:00.134Z,9.90
2018-12-21T13:30:28.264Z,9.90
2018-12-21T13:32:56.510Z,9.80
2018-12-21T13:35:24.714Z,9.80
2018-12-21T13:37:53.092Z,9.80
2018-12-21T13:40:21.226Z,9.70
2018-12-21T13:42:49.447Z,9.80
2018-12-21T13:45:17.746Z,9.80
2018-12-21T13:47:45.928Z,9.80
2018-12-21T13:50:15.191Z,9.80
2018-12-21T13:52:43.387Z,9.80
2018-12-21T13:55:20.015Z,9.80
2018-12-21T13:57:41.746Z,9.80
2018-12-21T14:00:10.808Z,9.70
2018-12-21T14:02:39.046Z,9.60
2018-12-21T14:05:07.813Z,9.60
2018-12-21T14:07:35.987Z,9.70
2018-12-21T14:10:07.125Z,9.80
2018-12-21T14:12:35.476Z,9.70
2018-12-21T14:15:03.884Z,9.60
2018-12-21T14:17:32.201Z,9.60
2018-12-21T14:20:00.361Z,9.60
2018-12-21T14:22:28.626Z,9.70
2018-12-21T14:24:56.868Z,9.60
2018-12-21T14:27:25.080Z,9.60
2018-12-21T14:29:53.188Z,9.60
2018-12-21T14:32:21.406Z,9.60
2018-12-21T14:34:49.633Z,9.50
2018-12-21T14:37:17.816Z,9.60
2018-12-21T14:39:46.008Z,9.60
2018-12-21T14:42:14.361Z,9.60
2018-12-21T14:44:42.777Z,9.80
2018-12-21T14:47:11.175Z,9.80
2018-12-21T14:49:39.471Z,9.90
2018-12-21T14:52:07.962Z,9.90
2018-12-21T14:54:36.323Z,9.90
2018-12-21T14:57:11.263Z,9.90
2018-12-21T14:59:39.524Z,9.90
2018-12-21T15:02:08.061Z,9.90
2018-12-21T15:04:36.194Z,9.90
2018-12-21T15:07:04.443Z,9.90
2018-12-21T15:09:32.736Z,9.80
2018-12-21T15:12:00.980Z,9.80
2018-12-21T15:14:29.266Z,9.90
2018-12-21T15:16:57.465Z,10.00
2018-12-21T15:19:25.843Z,10.10
2018-12-21T15:21:54.076Z,10.10
2018-12-21T15:24:22.319Z,10.20
2018-12-21T15:26:50.472Z,10.20
2018-12-21T15:29:18.686Z,10.20
2018-12-21T15:31:46.958Z,10.20
2018-12-21T15:34:15.103Z,10.20
2018-12-21T15:36:43.277Z,10.20
2018-12-21T15:39:11.433Z,10.30
2018-12-21T15:41:39.652Z,10.30
2018-12-21T15:44:07.785Z,10.30
2018-12-21T15:46:35.935Z,10.30
2018-12-21T15:49:04.161Z,10.30
2018-12-21T15:51:32.332Z,10.40
2018-12-21T15:54:00.484Z,10.50
2018-12-21T15:56:28.684Z,10.50
2018-12-21T15:58:57.650Z,10.50
2018-12-21T16:01:25.833Z,10.60
2018-12-21T16:03:53.960Z,10.60
2018-12-21T16:06:22.178Z,10.70
2018-12-21T16:08:50.332Z,10.60
2018-12-21T16:11:18.637Z,10.60
2018-12-21T16:13:46.852Z,10.60
2018-12-21T16:16:14.992Z,10.60
2018-12-21T16:18:43.227Z,10.60
2018-12-21T16:21:11.458Z,10.70
2018-12-21T16:23:39.613Z,10.70
2018-12-21T16:26:07.746Z,10.80
2018-12-21T16:28:35.925Z,10.90
2018-12-21T16:31:04.160Z,10.80
2018-12-21T16:33:32.331Z,10.90
2018-12-21T16:36:00.480Z,10.90
2018-12-21T16:38:28.672Z,10.90
2018-12-21T16:40:56.808Z,10.80
2018-12-21T16:43:25.098Z,10.80
2018-12-21T16:45:53.284Z,10.80
2018-12-21T16:48:21.517Z,10.80
2018-12-21T16:50:49.703Z,10.80
2018-12-21T16:53:17.945Z,10.90
2018-12-21T16:55:46.189Z,10.90
2018-12-21T16:58:14.430Z,11.00
2018-12-21T17:00:42.725Z,11.00
2018-12-21T17:03:15.623Z,10.90
2018-12-21T17:05:41.166Z,10.90
2018-12-21T17:08:09.365Z,10.90
2018-12-21T17:10:37.680Z,11.00
2018-12-21T17:13:06.072Z,11.00
2018-12-21T17:15:34.264Z,11.00
2018-12-21T17:18:02.576Z,11.00
2018-12-21T17:20:30.729Z,11.10
2018-12-21T17:23:00.781Z,11.00
2018-12-21T17:25:29.500Z,11.00
2018-12-21T17:27:57.677Z,11.00
2018-12-21T17:30:25.878Z,11.00
2018-12-21T17:32:54.043Z,11.00
2018-12-21T17:35:22.369Z,10.90
2018-12-21T17:37:50.578Z,10.90
2018-12-21T17:40:18.715Z,10.80
2018-12-21T17:42:46.975Z,10.80
2018-12-21T17:45:15.232Z,10.80
2018-12-21T17:47:43.391Z,10.80
2018-12-21T17:50:11.729Z,10.80
2018-12-21T17:52:39.956Z,10.80
2018-12-21T17:55:09.348Z,10.80
2018-12-21T17:57:37.480Z,10.80
2018-12-21T18:00:14.183Z,10.80
2018-12-21T18:02:43.012Z,10.80
2018-12-21T18:05:11.266Z,10.80
2018-12-21T18:07:39.460Z,10.80
2018-12-21T18:10:09.482Z,10.80
2018-12-21T18:12:37.722Z,10.90
2018-12-21T18:15:07.445Z,10.90
2018-12-21T18:17:35.724Z,10.80
2018-12-21T18:20:05.162Z,10.80
2018-12-21T18:22:33.487Z,10.90
2018-12-21T18:25:04.921Z,11.00
2018-12-21T18:27:35.371Z,11.10
2018-12-21T18:30:05.439Z,11.10
2018-12-21T18:32:37.207Z,11.00
2018-12-21T18:35:09.269Z,11.00
2018-12-21T18:37:44.291Z,11.00
2018-12-21T18:40:12.648Z,10.90
2018-12-21T18:42:41.024Z,10.90
2018-12-21T18:45:09.465Z,10.90
2018-12-21T18:47:37.621Z,10.90
2018-12-21T18:50:06.029Z,10.90
2018-12-21T18:52:34.190Z,10.90
2018-12-21T18:55:02.550Z,10.90
2018-12-21T18:57:30.715Z,10.90
2018-12-21T18:59:59.552Z,10.90
2018-12-21T19:02:27.766Z,10.80
2018-12-21T19:04:56.013Z,10.90
2018-12-21T19:07:24.220Z,11.00
2018-12-21T19:09:52.580Z,11.10
2018-12-21T19:12:20.769Z,11.00
2018-12-21T19:14:49.012Z,10.90
2018-12-21T19:17:17.258Z,10.90
2018-12-21T19:19:45.594Z,10.90
2018-12-21T19:22:13.844Z,10.90
2018-12-21T19:24:42.078Z,11.00
2018-12-21T19:27:10.250Z,11.00
2018-12-21T19:29:38.471Z,11.10
2018-12-21T19:32:06.641Z,11.20
2018-12-21T19:34:34.835Z,11.20
2018-12-21T19:37:03.087Z,11.10
2018-12-21T19:39:31.284Z,11.10
2018-12-21T19:41:59.431Z,11.10
2018-12-21T19:44:27.585Z,11.10
2018-12-21T19:46:55.815Z,11.10
2018-12-21T19:49:23.984Z,11.20
2018-12-21T19:51:52.144Z,11.20
2018-12-21T19:54:22.186Z,11.20
2018-12-21T19:57:04.176Z,11.10
2018-12-21T19:59:27.086Z,11.20
2018-12-21T20:01:55.241Z,11.20
2018-12-21T20:04:23.413Z,11.20
2018-12-21T20:06:51.631Z,11.20
2018-12-21T20:09:19.799Z,11.20
2018-12-21T20:11:47.986Z,11.20
2018-12-21T20:14:16.160Z,11.40
2018-12-21T20:16:44.348Z,11.40
2018-12-21T20:19:12.631Z,11.50
2018-12-21T20:21:40.808Z,11.50
2018-12-21T20:24:09.014Z,11.50
2018-12-21T20:26:37.310Z,11.60
2018-12-21T20:29:05.538Z,11.60
2018-12-21T20:31:33.725Z,11.60
2018-12-21T20:34:02.000Z,11.50
2018-12-21T20:36:30.180Z,11.50
2018-12-21T20:38:58.448Z,11.40
2018-12-21T20:41:26.933Z,11.40
2018-12-21T20:43:55.161Z,11.30
2018-12-21T20:46:23.334Z,11.20
2018-12-21T20:48:51.488Z,11.00
2018-12-21T20:51:19.668Z,11.00
2018-12-21T20:53:47.962Z,11.10
2018-12-21T20:56:16.286Z,11.00
2018-12-21T20:58:48.182Z,11.00
2018-12-21T21:01:16.548Z,11.00
2018-12-21T21:03:44.692Z,11.00
2018-12-21T21:06:12.895Z,11.00
2018-12-21T21:08:41.067Z,10.90
2018-12-21T21:11:09.460Z,10.90
2018-12-21T21:13:37.665Z,10.90
2018-12-21T21:16:05.903Z,10.90
2018-12-21T21:18:34.072Z,10.90
2018-12-21T21:21:02.706Z,11.00
2018-12-21T21:23:31.009Z,11.00
2018-12-21T21:25:59.189Z,11.00
2018-12-21T21:28:27.324Z,11.00
2018-12-21T21:30:55.508Z,11.00
2018-12-21T21:33:23.686Z,11.00
2018-12-21T21:35:51.994Z,11.00
2018-12-21T21:38:20.199Z,11.00
2018-12-21T21:40:54.946Z,11.00
2018-12-21T21:43:23.128Z,11.00
2018-12-21T21:45:51.388Z,11.00
2018-12-21T21:48:19.697Z,10.90
2018-12-21T21:50:47.944Z,11.00
2018-12-21T21:53:16.224Z,11.00
2018-12-21T21:55:44.464Z,11.00
2018-12-21T21:58:12.722Z,11.00
2018-12-21T22:00:40.951Z,11.00
2018-12-21T22:03:09.195Z,11.00
2018-12-21T22:05:37.520Z,11.00
2018-12-21T22:08:36.764Z,11.00
2018-12-21T22:11:05.078Z,11.00
2018-12-21T22:13:33.236Z,11.00
2018-12-21T22:16:01.547Z,10.90
2018-12-21T22:18:29.795Z,10.90
2018-12-21T22:20:57.972Z,10.90
2018-12-21T22:23:26.256Z,10.90
2018-12-21T22:25:54.424Z,10.80
2018-12-21T22:28:22.643Z,10.70
2018-12-21T22:30:50.903Z,10.60
2018-12-21T22:33:19.048Z,10.60
2018-12-21T22:35:47.429Z,10.60
2018-12-21T22:38:15.665Z,10.60
2018-12-21T22:40:43.903Z,10.60
2018-12-21T22:43:12.051Z,10.60
2018-12-21T22:45:40.278Z,10.50
2018-12-21T22:48:08.605Z,10.50
2018-12-21T22:50:36.841Z,10.50
2018-12-21T22:53:04.992Z,10.50
2018-12-21T22:55:33.123Z,10.40
2018-12-21T22:58:01.325Z,10.40
2018-12-21T23:00:33.652Z,10.40
2018-12-21T23:03:01.919Z,10.40
2018-12-21T23:05:30.124Z,10.30
2018-12-21T23:08:05.083Z,10.20
2018-12-21T23:10:33.312Z,10.20
2018-12-21T23:13:01.483Z,10.20
2018-12-21T23:15:29.771Z,10.30
2018-12-21T23:17:58.444Z,10.30
2018-12-21T23:20:26.899Z,10.30
2018-12-21T23:22:55.054Z,10.40
2018-12-21T23:25:23.311Z,10.30
2018-12-21T23:27:51.488Z,10.20
2018-12-21T23:30:19.624Z,10.20
2018-12-21T23:32:47.839Z,10.20
2018-12-21T23:35:15.962Z,10.10
2018-12-21T23:37:44.188Z,10.00
2018-12-21T23:40:12.493Z,10.00
2018-12-21T23:42:40.625Z,9.90
2018-12-21T23:45:09.001Z,9.80
2018-12-21T23:47:37.151Z,9.80
2018-12-21T23:50:06.322Z,9.80
2018-12-21T23:52:34.570Z,9.70
2018-12-21T23:55:02.778Z,9.70
2018-12-21T23:57:31.228Z,9.70
2018-12-21T23:59:59.443Z,9.70
